Airfield :







YOU CAN JOIN US ON...

 
LOGIN :

Register | Disclaimer

   EN    FR    IT 

 









Legend :    VFR   Marginal VFR   IFR   Intensive IFR   Very Intensive IFR
Visi :
Ceiling :
>= 8 km
>= 3000ft
5 to 8 km
1000 to 3000 ft
1500m to 5 km
500 to 1000 ft
800 to 1500m
200 to 500 ft
< 800m
< 200 ft
Symbols :   Thunderstorms  Fog  Heavy snow  Heavy precipitations  Wind > 20 kt







- Airport Elevation : 203 ft
- IATA code : YQY


CYQY - Sydney

CURRENT METAR :
  • 191600Z 03006KT 020V140 15SM FEW250 16/00 A3025 RMK CI2 SLP247

EXPIRED METARs :
  • 191500Z 03005KT 15SM FEW250 15/M00 A3027 RMK CI2 SLP253
  • 191400Z VRB03KT 15SM FEW250 13/02 A3027 RMK CI2 SLP254

TAF TAF CYQY
Valid from the 19 at 12:00 until the 20 at 00:00 UTC


191138Z 1912/1924 VRB03KT P6SM FEW240
BECMG 1914/1916 02008KT
FM192100 06005KT P6SM FEW030 RMK NXT FCST BY 191800Z
No reported NOTAMs for that airfield.



MET'MAP, your aeronautical weather chart ! - Copyright ORBIFLY December 2007 - Disclaimer

ORBIFLY MET'MAP TEAM :

Programming & Development : Alexandra Zaïnal
Concept & Development : Baudouin d'Aumeries
Co-Development & Prog : Marc-Olivier Méhu
Technical & hardware support : Manuel Goepfert

Contact : metmap@orbifly.com




SOURCES & CREDITS :

   NOAA